createdAt,value
2023-02-11T00:00:16.671Z,127.10
2023-02-11T00:01:16.649Z,126.20
2023-02-11T00:02:16.558Z,121.90
2023-02-11T00:03:16.533Z,140.30
2023-02-11T00:04:16.414Z,123.40
2023-02-11T00:05:16.410Z,127.40
2023-02-11T00:06:16.291Z,134.40
2023-02-11T00:07:16.199Z,131.90
2023-02-11T00:08:16.191Z,130.70
2023-02-11T00:09:16.097Z,129.90
2023-02-11T00:10:16.064Z,137.80
2023-02-11T00:11:15.993Z,132.90
2023-02-11T00:12:15.911Z,134.30
2023-02-11T00:13:15.848Z,133.70
2023-02-11T00:14:15.757Z,121.60
2023-02-11T00:15:15.754Z,134.80
2023-02-11T00:16:15.732Z,130.90
2023-02-11T00:17:15.604Z,134.40
2023-02-11T00:18:15.557Z,135.50
2023-02-11T00:19:15.464Z,132.30
2023-02-11T00:20:15.400Z,130.50
2023-02-11T00:21:15.318Z,131.30
2023-02-11T00:22:15.275Z,139.00
2023-02-11T00:25:33.643Z,132.90
2023-02-11T00:26:34.597Z,138.30
2023-02-11T00:27:34.508Z,135.20
2023-02-11T00:28:34.512Z,136.90
2023-02-11T00:29:34.411Z,128.00
2023-02-11T00:30:34.489Z,132.20
2023-02-11T00:31:34.421Z,137.70
2023-02-11T00:32:34.241Z,138.70
2023-02-11T00:33:34.148Z,129.30
2023-02-11T00:34:34.108Z,145.60
2023-02-11T00:35:34.017Z,134.60
2023-02-11T00:37:43.212Z,133.30
2023-02-11T00:38:44.153Z,134.50
2023-02-11T00:39:44.055Z,133.70
2023-02-11T00:40:43.971Z,133.00
2023-02-11T00:41:43.950Z,139.90
2023-02-11T00:42:43.898Z,136.80
2023-02-11T00:43:43.794Z,141.00
2023-02-11T00:44:43.730Z,138.30
2023-02-11T00:45:43.639Z,138.60
2023-02-11T00:46:43.740Z,142.00
2023-02-11T00:47:43.512Z,146.50
2023-02-11T00:48:43.754Z,140.00
2023-02-11T00:49:43.454Z,131.80
2023-02-11T00:50:43.328Z,143.50
2023-02-11T00:51:43.272Z,141.30
2023-02-11T00:52:43.256Z,142.20
2023-02-11T00:53:43.133Z,145.70
2023-02-11T00:55:04.052Z,140.60
2023-02-11T00:55:43.029Z,139.10
2023-02-11T00:56:42.952Z,141.60
2023-02-11T00:57:42.932Z,139.10
2023-02-11T00:58:42.837Z,143.90
2023-02-11T00:59:42.773Z,146.90
2023-02-11T01:00:42.701Z,145.20
2023-02-11T01:01:42.726Z,156.00
2023-02-11T01:02:42.592Z,160.20
2023-02-11T01:03:42.550Z,140.70
2023-02-11T01:04:42.498Z,153.00
2023-02-11T01:05:42.423Z,143.60
2023-02-11T01:06:42.371Z,144.20
2023-02-11T01:07:42.266Z,164.40
2023-02-11T01:08:42.204Z,152.90
2023-02-11T01:09:42.140Z,138.30
2023-02-11T01:10:42.075Z,139.90
2023-02-11T01:11:42.010Z,149.00
2023-02-11T01:13:51.177Z,153.90
2023-02-11T01:14:52.134Z,148.60
2023-02-11T01:15:52.388Z,146.20
2023-02-11T01:16:52.005Z,137.60
2023-02-11T01:17:51.941Z,147.70
2023-02-11T01:18:51.911Z,146.30
2023-02-11T01:19:51.811Z,140.70
2023-02-11T01:20:51.698Z,144.20
2023-02-11T01:21:51.686Z,152.40
2023-02-11T01:22:51.572Z,145.50
2023-02-11T01:23:51.540Z,145.10
2023-02-11T01:24:51.510Z,147.90
2023-02-11T01:25:51.729Z,149.90
2023-02-11T01:26:51.345Z,148.00
2023-02-11T01:27:51.291Z,141.60
2023-02-11T01:28:51.242Z,140.50
2023-02-11T01:29:51.216Z,143.00
2023-02-11T01:32:30.471Z,139.40
2023-02-11T01:33:31.432Z,144.20
2023-02-11T01:34:31.345Z,145.60
2023-02-11T01:35:31.271Z,142.00
2023-02-11T01:36:31.208Z,141.60
2023-02-11T01:37:31.157Z,148.00
2023-02-11T01:38:31.138Z,151.20
2023-02-11T01:39:31.038Z,148.70
2023-02-11T01:40:30.983Z,147.80
2023-02-11T01:41:30.918Z,152.90
2023-02-11T01:42:30.864Z,146.20
2023-02-11T01:43:30.797Z,145.70
2023-02-11T01:44:30.703Z,150.80
2023-02-11T01:45:30.668Z,140.50
2023-02-11T01:46:30.653Z,151.70
2023-02-11T01:47:30.526Z,145.60
2023-02-11T01:48:30.443Z,145.30
2023-02-11T01:49:51.366Z,145.30
2023-02-11T01:50:30.347Z,140.90
2023-02-11T01:51:30.284Z,141.60
2023-02-11T01:52:30.193Z,141.90
2023-02-11T01:53:30.113Z,149.00
2023-02-11T01:54:30.041Z,154.00
2023-02-11T01:55:30.013Z,143.90
2023-02-11T01:56:29.934Z,141.20
2023-02-11T01:57:29.917Z,144.90
2023-02-11T01:58:29.810Z,143.90
2023-02-11T01:59:29.771Z,151.40
2023-02-11T02:00:29.652Z,150.20
2023-02-11T02:01:29.657Z,146.50
2023-02-11T02:02:29.524Z,149.00
2023-02-11T02:03:29.552Z,141.70
2023-02-11T02:04:29.400Z,148.60
2023-02-11T02:05:29.389Z,140.90
2023-02-11T02:06:29.276Z,143.60
2023-02-11T02:07:50.190Z,154.20
2023-02-11T02:08:29.158Z,157.70
2023-02-11T02:09:29.113Z,143.60
2023-02-11T02:10:29.061Z,143.30
2023-02-11T02:11:28.982Z,147.90
2023-02-11T02:12:28.938Z,146.80
2023-02-11T02:13:28.862Z,143.20
2023-02-11T02:14:28.792Z,149.20
2023-02-11T02:15:28.697Z,141.90
2023-02-11T02:16:28.705Z,155.30
2023-02-11T02:17:28.595Z,147.00
2023-02-11T02:18:28.535Z,153.50
2023-02-11T02:19:28.772Z,145.60
2023-02-11T02:20:28.385Z,151.90
2023-02-11T02:21:28.334Z,149.90
2023-02-11T02:22:28.247Z,144.60
2023-02-11T02:23:28.203Z,140.50
2023-02-11T02:24:28.156Z,157.30
2023-02-11T02:25:49.360Z,152.70
2023-02-11T02:26:28.022Z,149.30
2023-02-11T02:27:27.957Z,156.40
2023-02-11T02:28:27.906Z,145.10
2023-02-11T02:29:27.854Z,140.30
2023-02-11T02:30:27.804Z,151.50
2023-02-11T02:31:27.749Z,148.70
2023-02-11T02:32:27.613Z,160.20
2023-02-11T02:33:27.544Z,142.10
2023-02-11T02:34:27.535Z,147.40
2023-02-11T02:35:27.414Z,150.20
2023-02-11T02:36:27.377Z,151.10
2023-02-11T02:37:27.335Z,162.80
2023-02-11T02:38:27.280Z,152.10
2023-02-11T02:39:27.191Z,154.60
2023-02-11T02:40:27.146Z,155.00
2023-02-11T02:41:27.060Z,145.70
2023-02-11T02:42:26.990Z,155.40
2023-02-11T02:43:26.944Z,149.80
2023-02-11T02:44:26.870Z,146.10
2023-02-11T02:45:26.779Z,143.90
2023-02-11T02:46:26.838Z,155.30
2023-02-11T02:47:26.680Z,151.50
2023-02-11T02:48:26.611Z,146.90
2023-02-11T02:49:26.540Z,140.00
2023-02-11T02:50:26.514Z,152.30
2023-02-11T02:51:26.430Z,156.00
2023-02-11T02:52:26.335Z,153.00
2023-02-11T02:53:26.294Z,152.20
2023-02-11T02:54:26.248Z,154.70
2023-02-11T02:55:26.223Z,148.50
2023-02-11T02:56:26.115Z,157.10
2023-02-11T02:57:26.067Z,150.70
2023-02-11T02:58:25.975Z,154.30
2023-02-11T02:59:25.914Z,147.00
2023-02-11T03:00:26.028Z,150.00
2023-02-11T03:01:25.802Z,152.50
2023-02-11T03:02:25.755Z,146.70
2023-02-11T03:03:25.659Z,150.10
2023-02-11T03:04:25.595Z,144.00
2023-02-11T03:05:25.561Z,150.80
2023-02-11T03:06:25.494Z,152.10
2023-02-11T03:07:25.442Z,145.70
2023-02-11T03:08:25.325Z,150.30
2023-02-11T03:09:25.320Z,158.90
2023-02-11T03:10:25.271Z,142.90
2023-02-11T03:11:25.126Z,145.90
2023-02-11T03:12:25.118Z,139.00
2023-02-11T03:13:25.034Z,141.00
2023-02-11T03:14:25.026Z,143.20
2023-02-11T03:15:24.901Z,148.60
2023-02-11T03:16:24.899Z,151.00
2023-02-11T03:17:24.771Z,146.00
2023-02-11T03:18:24.679Z,152.10
2023-02-11T03:19:45.689Z,154.50
2023-02-11T03:20:24.607Z,146.30
2023-02-11T03:21:24.523Z,140.00
2023-02-11T03:22:24.457Z,155.50
2023-02-11T03:23:24.385Z,151.20
2023-02-11T03:24:24.314Z,139.60
2023-02-11T03:25:24.290Z,136.40
2023-02-11T03:26:24.261Z,148.30
2023-02-11T03:27:24.136Z,142.30
2023-02-11T03:28:24.146Z,145.50
2023-02-11T03:29:23.981Z,152.00
2023-02-11T03:30:23.970Z,143.40
2023-02-11T03:31:45.017Z,144.80
2023-02-11T03:32:23.845Z,152.00
2023-02-11T03:33:23.754Z,147.00
2023-02-11T03:34:23.713Z,149.40
2023-02-11T03:35:23.628Z,141.70
2023-02-11T03:36:23.571Z,148.70
2023-02-11T03:37:23.551Z,149.00
2023-02-11T03:38:23.510Z,163.10
2023-02-11T03:39:23.349Z,147.10
2023-02-11T03:40:23.343Z,152.20
2023-02-11T03:41:23.271Z,146.90
2023-02-11T03:42:23.236Z,141.30
2023-02-11T03:43:23.199Z,143.50
2023-02-11T03:44:23.053Z,148.60
2023-02-11T03:45:23.022Z,145.40
2023-02-11T03:46:22.951Z,143.70
2023-02-11T03:47:22.889Z,144.80
2023-02-11T03:48:22.796Z,140.10
2023-02-11T03:49:22.719Z,149.80
2023-02-11T03:50:22.643Z,139.90
2023-02-11T03:51:22.671Z,144.70
2023-02-11T03:52:22.545Z,135.30
2023-02-11T03:53:22.488Z,142.30
2023-02-11T03:54:22.436Z,139.50
2023-02-11T03:56:31.571Z,139.60
2023-02-11T03:57:32.506Z,153.10
2023-02-11T03:58:32.466Z,147.80
2023-02-11T03:59:32.379Z,153.50
2023-02-11T04:00:32.307Z,148.20
2023-02-11T04:01:32.347Z,147.40
2023-02-11T04:02:32.223Z,144.50
2023-02-11T04:03:32.211Z,154.50
2023-02-11T04:04:32.102Z,149.00
2023-02-11T04:05:32.014Z,143.80
2023-02-11T04:06:31.908Z,149.10
2023-02-11T04:07:31.888Z,154.10
2023-02-11T04:08:31.811Z,141.10
2023-02-11T04:09:31.766Z,139.90
2023-02-11T04:10:31.709Z,140.30
2023-02-11T04:11:31.592Z,134.30
2023-02-11T04:12:31.581Z,142.40
2023-02-11T04:13:31.516Z,147.40
2023-02-11T04:14:31.428Z,139.80
2023-02-11T04:15:31.391Z,139.90
2023-02-11T04:16:31.475Z,144.00
2023-02-11T04:17:31.236Z,140.40
2023-02-11T04:18:31.153Z,139.80
2023-02-11T04:19:31.158Z,144.90
2023-02-11T04:20:31.045Z,144.10
2023-02-11T04:21:31.005Z,145.30
2023-02-11T04:22:30.920Z,159.50
2023-02-11T04:23:30.855Z,150.00
2023-02-11T04:24:30.787Z,134.50
2023-02-11T04:25:30.741Z,136.90
2023-02-11T04:26:30.675Z,137.50
2023-02-11T04:27:30.599Z,136.60
2023-02-11T04:28:30.662Z,141.40
2023-02-11T04:29:30.474Z,142.00
2023-02-11T04:30:30.379Z,139.10
2023-02-11T04:31:51.402Z,142.20
2023-02-11T04:32:30.259Z,144.70
2023-02-11T04:33:30.248Z,132.60
2023-02-11T04:34:30.154Z,137.70
2023-02-11T04:35:30.124Z,144.40
2023-02-11T04:36:30.002Z,142.00
2023-02-11T04:37:30.006Z,144.00
2023-02-11T04:38:29.900Z,141.40
2023-02-11T04:39:29.812Z,135.80
2023-02-11T04:40:29.803Z,139.50
2023-02-11T04:41:29.701Z,137.10
2023-02-11T04:42:29.638Z,160.30
2023-02-11T04:43:29.603Z,136.30
2023-02-11T04:44:29.584Z,140.50
2023-02-11T04:45:29.452Z,133.60
2023-02-11T04:46:29.437Z,127.00
2023-02-11T04:47:29.323Z,136.70
2023-02-11T04:48:29.231Z,150.80
2023-02-11T04:49:50.265Z,140.50
2023-02-11T04:50:29.105Z,138.80
2023-02-11T04:51:29.101Z,139.80
2023-02-11T04:52:29.013Z,132.20
2023-02-11T04:53:29.001Z,133.60
2023-02-11T04:54:28.878Z,142.30
2023-02-11T04:55:28.808Z,145.00
2023-02-11T04:56:28.752Z,136.50
2023-02-11T04:57:28.688Z,133.80
2023-02-11T04:58:28.623Z,137.40
2023-02-11T04:59:28.555Z,145.90
2023-02-11T05:00:28.501Z,142.30
2023-02-11T05:01:28.802Z,140.50
2023-02-11T05:02:28.372Z,147.70
2023-02-11T05:03:28.277Z,134.80
2023-02-11T05:04:28.349Z,141.70
2023-02-11T05:05:28.181Z,144.50
2023-02-11T05:06:28.082Z,137.80
2023-02-11T05:07:28.081Z,134.80
2023-02-11T05:08:28.024Z,143.30
2023-02-11T05:09:27.945Z,137.00
2023-02-11T05:10:27.857Z,134.40
2023-02-11T05:11:27.770Z,136.30
2023-02-11T05:12:27.763Z,133.60
2023-02-11T05:13:27.711Z,140.40
2023-02-11T05:14:27.667Z,138.50
2023-02-11T05:15:27.537Z,137.60
2023-02-11T05:16:27.641Z,146.90
2023-02-11T05:17:27.407Z,134.90
2023-02-11T05:18:27.319Z,132.00
2023-02-11T05:19:27.306Z,135.80
2023-02-11T05:20:27.244Z,138.60
2023-02-11T05:21:27.215Z,137.10
2023-02-11T05:22:27.137Z,145.40
2023-02-11T05:23:27.034Z,142.40
2023-02-11T05:24:26.938Z,144.10
2023-02-11T05:27:05.959Z,137.00
2023-02-11T05:28:06.887Z,141.40
2023-02-11T05:29:06.784Z,134.60
2023-02-11T05:30:06.719Z,142.00
2023-02-11T05:31:06.724Z,137.80
2023-02-11T05:32:06.581Z,134.00
2023-02-11T05:33:06.522Z,138.40
2023-02-11T05:34:06.473Z,139.80
2023-02-11T05:35:06.373Z,146.60
2023-02-11T05:36:06.340Z,131.00
2023-02-11T05:37:06.333Z,138.50
2023-02-11T05:38:06.278Z,137.30
2023-02-11T05:39:06.149Z,137.70
2023-02-11T05:40:06.119Z,130.00
2023-02-11T05:41:06.026Z,132.00
2023-02-11T05:42:05.955Z,137.70
2023-02-11T05:43:05.937Z,132.60
2023-02-11T05:44:05.852Z,132.60
2023-02-11T05:45:05.719Z,136.00
2023-02-11T05:46:05.773Z,134.80
2023-02-11T05:47:05.682Z,136.40
2023-02-11T05:48:05.612Z,128.90
2023-02-11T05:49:05.482Z,135.00
2023-02-11T05:50:05.440Z,138.70
2023-02-11T05:51:05.393Z,129.10
2023-02-11T05:52:05.315Z,127.90
2023-02-11T05:53:05.236Z,130.00
2023-02-11T05:54:05.254Z,141.50
2023-02-11T05:55:05.120Z,137.00
2023-02-11T05:56:05.066Z,129.50
2023-02-11T05:57:05.001Z,131.40
2023-02-11T05:58:04.940Z,136.40
2023-02-11T05:59:04.876Z,129.30
2023-02-11T06:00:04.813Z,132.30
2023-02-11T06:01:04.728Z,138.80
2023-02-11T06:02:25.677Z,127.00
2023-02-11T06:03:04.600Z,128.60
2023-02-11T06:04:04.579Z,125.70
2023-02-11T06:05:04.454Z,130.90
2023-02-11T06:06:04.425Z,128.90
2023-02-11T06:07:04.368Z,126.90
2023-02-11T06:08:04.297Z,127.40
2023-02-11T06:09:04.214Z,129.10
2023-02-11T06:10:04.141Z,126.70
2023-02-11T06:11:04.091Z,126.90
2023-02-11T06:12:04.054Z,129.30
2023-02-11T06:13:03.957Z,128.10
2023-02-11T06:14:03.959Z,140.60
2023-02-11T06:15:03.857Z,127.30
2023-02-11T06:16:03.872Z,132.40
2023-02-11T06:17:03.674Z,131.10
2023-02-11T06:18:03.695Z,123.40
2023-02-11T06:19:03.553Z,117.70
2023-02-11T06:20:03.549Z,129.90
2023-02-11T06:21:03.540Z,131.30
2023-02-11T06:22:03.435Z,123.40
2023-02-11T06:23:03.318Z,128.50
2023-02-11T06:24:03.224Z,133.00
2023-02-11T06:25:03.247Z,122.90
2023-02-11T06:26:03.109Z,125.40
2023-02-11T06:27:03.039Z,127.00
2023-02-11T06:28:03.056Z,144.40
2023-02-11T06:29:02.890Z,132.30
2023-02-11T06:30:02.902Z,130.10
2023-02-11T06:31:02.779Z,136.70
2023-02-11T06:32:02.905Z,127.20
2023-02-11T06:33:02.700Z,131.80
2023-02-11T06:34:02.571Z,137.40
2023-02-11T06:35:02.514Z,144.00
2023-02-11T06:36:02.421Z,123.50
2023-02-11T06:37:02.376Z,126.00
2023-02-11T06:38:23.305Z,123.80
2023-02-11T06:39:02.231Z,133.70
2023-02-11T06:40:02.244Z,128.30
2023-02-11T06:41:02.098Z,124.70
2023-02-11T06:42:02.761Z,128.40
2023-02-11T06:43:02.018Z,128.80
2023-02-11T06:44:01.957Z,134.40
2023-02-11T06:45:01.869Z,127.10
2023-02-11T06:46:01.802Z,128.10
2023-02-11T06:47:01.722Z,125.70
2023-02-11T06:48:01.703Z,126.10
2023-02-11T06:49:01.614Z,116.50
2023-02-11T06:50:01.634Z,133.20
2023-02-11T06:51:01.530Z,128.60
2023-02-11T06:52:01.404Z,123.10
2023-02-11T06:53:01.432Z,123.50
2023-02-11T06:54:01.310Z,131.50
2023-02-11T06:55:01.240Z,121.10
2023-02-11T06:56:01.191Z,134.70
2023-02-11T06:57:01.078Z,129.50
2023-02-11T06:58:01.069Z,129.50
2023-02-11T06:59:00.992Z,131.40
2023-02-11T07:00:00.960Z,130.50
2023-02-11T07:01:00.853Z,130.90
2023-02-11T07:02:00.867Z,131.70
2023-02-11T07:03:00.798Z,122.90
2023-02-11T07:04:00.688Z,131.80
2023-02-11T07:05:00.574Z,134.00
2023-02-11T07:06:00.509Z,129.30
2023-02-11T07:07:00.495Z,123.90
2023-02-11T07:08:00.454Z,123.50
2023-02-11T07:09:00.342Z,129.10
2023-02-11T07:10:00.310Z,132.10
2023-02-11T07:11:00.216Z,126.70
2023-02-11T07:12:00.175Z,128.00
2023-02-11T07:13:00.148Z,128.70
2023-02-11T07:14:00.066Z,121.80
2023-02-11T07:14:59.966Z,126.90
2023-02-11T07:15:59.946Z,132.40
2023-02-11T07:16:59.806Z,128.00
2023-02-11T07:17:59.775Z,119.20
2023-02-11T07:18:59.708Z,120.40
2023-02-11T07:19:59.651Z,123.30
2023-02-11T07:20:59.559Z,117.00
2023-02-11T07:21:59.520Z,131.30
2023-02-11T07:22:59.480Z,120.40
2023-02-11T07:23:59.388Z,125.20
2023-02-11T07:24:59.342Z,127.50
2023-02-11T07:25:59.272Z,127.00
2023-02-11T07:26:59.225Z,122.10
2023-02-11T07:27:59.146Z,122.30
2023-02-11T07:28:59.072Z,131.20
2023-02-11T07:29:59.004Z,124.30
2023-02-11T07:30:59.032Z,132.40
2023-02-11T07:31:58.939Z,127.40
2023-02-11T07:32:58.814Z,128.00
2023-02-11T07:33:58.752Z,128.30
2023-02-11T07:34:58.757Z,138.30
2023-02-11T07:35:58.632Z,128.50
2023-02-11T07:36:58.566Z,131.80
2023-02-11T07:37:58.507Z,128.30
2023-02-11T07:38:58.453Z,135.30
2023-02-11T07:39:58.404Z,121.10
2023-02-11T07:40:58.306Z,132.00
2023-02-11T07:41:58.262Z,135.90
2023-02-11T07:42:58.155Z,127.40
2023-02-11T07:43:58.139Z,140.30
2023-02-11T07:44:58.051Z,136.30
2023-02-11T07:45:57.996Z,124.30
2023-02-11T07:46:57.995Z,124.80
2023-02-11T07:47:57.861Z,135.10
2023-02-11T07:48:57.832Z,131.80
2023-02-11T07:51:36.613Z,134.50
2023-02-11T07:52:37.549Z,129.00
2023-02-11T07:53:37.564Z,127.60
2023-02-11T07:54:37.441Z,134.70
2023-02-11T07:55:37.421Z,131.80
2023-02-11T07:56:37.280Z,146.70
2023-02-11T07:57:37.244Z,129.80
2023-02-11T07:58:37.170Z,132.30
2023-02-11T07:59:37.111Z,123.60
2023-02-11T08:00:37.068Z,132.60
2023-02-11T08:01:36.988Z,123.90
2023-02-11T08:02:36.954Z,132.30
2023-02-11T08:03:36.838Z,131.30
2023-02-11T08:04:36.845Z,125.00
2023-02-11T08:05:36.765Z,129.70
2023-02-11T08:06:36.688Z,132.10
2023-02-11T08:08:45.792Z,123.30
2023-02-11T08:09:46.719Z,120.60
2023-02-11T08:10:46.642Z,131.50
2023-02-11T08:11:46.576Z,126.70
2023-02-11T08:12:46.527Z,128.20
2023-02-11T08:13:46.516Z,134.20
2023-02-11T08:14:46.372Z,126.10
2023-02-11T08:15:46.338Z,117.50
2023-02-11T08:16:46.273Z,135.30
2023-02-11T08:17:46.232Z,124.50
2023-02-11T08:18:46.119Z,123.20
2023-02-11T08:19:46.100Z,127.30
2023-02-11T08:20:46.019Z,127.70
2023-02-11T08:21:45.948Z,129.10
2023-02-11T08:22:45.886Z,127.00
2023-02-11T08:23:45.826Z,131.00
2023-02-11T08:24:45.757Z,120.50
2023-02-11T08:27:54.321Z,123.50
2023-02-11T08:28:55.251Z,131.20
2023-02-11T08:29:55.162Z,131.00
2023-02-11T08:30:55.087Z,127.30
2023-02-11T08:31:55.038Z,123.40
2023-02-11T08:32:54.967Z,124.90
2023-02-11T08:33:54.913Z,130.70
2023-02-11T08:34:54.829Z,120.00
2023-02-11T08:35:54.793Z,126.40
2023-02-11T08:36:54.712Z,128.60
2023-02-11T08:37:54.670Z,126.50
2023-02-11T08:38:57.154Z,129.40
2023-02-11T08:39:54.502Z,126.20
2023-02-11T08:40:54.462Z,119.90
2023-02-11T08:41:54.405Z,134.60
2023-02-11T08:42:54.334Z,130.50
2023-02-11T08:43:54.338Z,125.40
2023-02-11T08:44:54.208Z,134.90
2023-02-11T08:45:54.408Z,123.30
2023-02-11T08:46:54.105Z,125.30
2023-02-11T08:47:53.990Z,120.70
2023-02-11T08:48:53.984Z,128.70
2023-02-11T08:49:53.901Z,119.40
2023-02-11T08:50:53.855Z,121.00
2023-02-11T08:51:53.774Z,122.80
2023-02-11T08:52:53.709Z,125.90
2023-02-11T08:53:53.668Z,132.30
2023-02-11T08:54:53.577Z,121.00
2023-02-11T08:55:53.624Z,122.40
2023-02-11T08:56:53.454Z,123.90
2023-02-11T08:57:53.387Z,123.20
2023-02-11T08:58:53.321Z,130.90
2023-02-11T08:59:53.290Z,120.10
2023-02-11T09:00:53.605Z,118.20
2023-02-11T09:01:53.304Z,124.30
2023-02-11T09:02:53.047Z,129.10
2023-02-11T09:03:53.023Z,123.00
2023-02-11T09:04:52.976Z,120.30
2023-02-11T09:05:52.882Z,119.10
2023-02-11T09:06:52.826Z,119.90
2023-02-11T09:07:52.952Z,125.50
2023-02-11T09:08:52.703Z,124.70
2023-02-11T09:09:52.681Z,123.90
2023-02-11T09:10:52.993Z,118.30
2023-02-11T09:11:52.542Z,130.60
2023-02-11T09:12:52.445Z,119.10
2023-02-11T09:13:54.391Z,128.20
2023-02-11T09:14:52.310Z,118.70
2023-02-11T09:15:52.275Z,124.00
2023-02-11T09:16:52.274Z,128.10
2023-02-11T09:17:52.119Z,113.10
2023-02-11T09:18:52.071Z,123.30
2023-02-11T09:19:52.038Z,116.40
2023-02-11T09:20:52.292Z,116.90
2023-02-11T09:21:51.880Z,118.70
2023-02-11T09:22:51.811Z,117.90
2023-02-11T09:23:51.780Z,113.40
2023-02-11T09:24:51.653Z,115.40
2023-02-11T09:25:52.105Z,116.10
2023-02-11T09:26:51.591Z,115.30
2023-02-11T09:27:51.493Z,121.50
2023-02-11T09:28:51.471Z,113.40
2023-02-11T09:29:51.372Z,114.60
2023-02-11T09:30:51.712Z,122.00
2023-02-11T09:31:51.372Z,109.40
2023-02-11T09:32:51.151Z,116.20
2023-02-11T09:33:51.142Z,114.40
2023-02-11T09:34:51.059Z,112.80
2023-02-11T09:35:51.018Z,113.90
2023-02-11T09:36:50.915Z,114.70
2023-02-11T09:37:50.858Z,114.70
2023-02-11T09:38:50.815Z,113.60
2023-02-11T09:39:50.772Z,105.00
2023-02-11T09:40:51.023Z,111.30
2023-02-11T09:41:50.588Z,112.60
2023-02-11T09:42:50.525Z,118.00
2023-02-11T09:43:50.543Z,109.20
2023-02-11T09:44:50.404Z,107.10
2023-02-11T09:45:50.434Z,110.00
2023-02-11T09:46:50.321Z,108.20
2023-02-11T09:47:50.234Z,112.40
2023-02-11T09:48:50.146Z,115.90
2023-02-11T09:49:50.125Z,106.40
2023-02-11T09:50:50.379Z,111.70
2023-02-11T09:51:49.964Z,110.20
2023-02-11T09:52:49.916Z,106.60
2023-02-11T09:53:49.829Z,114.20
2023-02-11T09:54:49.768Z,110.80
2023-02-11T09:56:10.711Z,111.40
2023-02-11T09:56:49.640Z,105.80
2023-02-11T09:57:49.647Z,119.30
2023-02-11T09:58:49.551Z,109.50
2023-02-11T09:59:49.506Z,113.00
2023-02-11T10:00:49.750Z,110.40
2023-02-11T10:01:49.455Z,109.60
2023-02-11T10:02:49.319Z,104.70
2023-02-11T10:03:49.258Z,100.70
2023-02-11T10:04:49.167Z,98.20
2023-02-11T10:05:49.128Z,111.20
2023-02-11T10:06:49.080Z,109.00
2023-02-11T10:07:48.973Z,110.40
2023-02-11T10:08:48.947Z,112.60
2023-02-11T10:09:48.864Z,100.20
2023-02-11T10:10:49.036Z,108.30
2023-02-11T10:11:48.727Z,111.90
2023-02-11T10:12:48.670Z,102.80
2023-02-11T10:13:48.667Z,106.70
2023-02-11T10:14:48.551Z,106.60
2023-02-11T10:15:48.547Z,110.00
2023-02-11T10:16:48.435Z,110.40
2023-02-11T10:17:48.329Z,105.30
2023-02-11T10:18:48.287Z,110.30
2023-02-11T10:19:48.573Z,107.00
2023-02-11T10:20:48.193Z,105.40
2023-02-11T10:21:48.098Z,106.00
2023-02-11T10:22:48.034Z,106.00
2023-02-11T10:23:47.983Z,103.40
2023-02-11T10:24:47.952Z,104.40
2023-02-11T10:25:47.866Z,112.80
2023-02-11T10:26:47.789Z,103.30
2023-02-11T10:27:47.749Z,112.30
2023-02-11T10:28:47.658Z,104.50
2023-02-11T10:29:47.570Z,106.20
2023-02-11T10:30:47.644Z,115.40
2023-02-11T10:31:47.512Z,122.20
2023-02-11T10:32:47.434Z,122.70
2023-02-11T10:33:47.382Z,112.90
2023-02-11T10:34:47.308Z,95.60
2023-02-11T10:35:47.205Z,117.20
2023-02-11T10:36:47.134Z,109.70
2023-02-11T10:37:47.106Z,109.70
2023-02-11T10:38:47.064Z,106.60
2023-02-11T10:39:46.964Z,108.40
2023-02-11T10:40:46.902Z,103.20
2023-02-11T10:41:46.814Z,110.10
2023-02-11T10:42:46.777Z,101.10
2023-02-11T10:43:46.737Z,97.00
2023-02-11T10:44:46.659Z,105.80
2023-02-11T10:45:46.615Z,105.10
2023-02-11T10:46:46.589Z,108.80
2023-02-11T10:47:46.486Z,104.70
2023-02-11T10:48:46.418Z,106.00
2023-02-11T10:49:46.372Z,106.50
2023-02-11T10:50:46.282Z,104.40
2023-02-11T10:51:46.237Z,106.80
2023-02-11T10:52:46.147Z,102.50
2023-02-11T10:53:46.114Z,102.90
2023-02-11T10:54:45.995Z,110.10
2023-02-11T11:00:22.706Z,105.80
2023-02-11T11:01:25.059Z,102.30
2023-02-11T11:02:23.560Z,108.80
2023-02-11T11:03:23.546Z,104.40
2023-02-11T11:04:23.469Z,103.30
2023-02-11T11:06:32.570Z,116.30
2023-02-11T11:07:33.487Z,115.20
2023-02-11T11:08:33.465Z,105.30
2023-02-11T11:09:33.392Z,112.90
2023-02-11T11:10:33.333Z,104.00
2023-02-11T11:11:33.305Z,104.60
2023-02-11T11:12:33.180Z,104.90
2023-02-11T11:13:33.125Z,112.50
2023-02-11T11:14:33.080Z,114.10
2023-02-11T11:15:32.964Z,104.00
2023-02-11T11:16:32.960Z,113.60
2023-02-11T11:17:32.917Z,99.80
2023-02-11T11:18:32.776Z,103.30
2023-02-11T11:19:32.779Z,101.70
2023-02-11T11:20:32.736Z,115.70
2023-02-11T11:21:32.649Z,105.00
2023-02-11T11:22:32.550Z,104.90
2023-02-11T11:23:53.465Z,106.50
2023-02-11T11:24:32.399Z,107.60
2023-02-11T11:25:32.353Z,111.70
2023-02-11T11:26:32.280Z,110.60
2023-02-11T11:27:32.230Z,98.90
2023-02-11T11:28:32.211Z,109.20
2023-02-11T11:29:32.141Z,114.80
2023-02-11T11:30:32.099Z,110.60
2023-02-11T11:31:32.154Z,107.60
2023-02-11T11:32:31.921Z,107.90
2023-02-11T11:33:31.911Z,105.20
2023-02-11T11:34:31.828Z,114.90
2023-02-11T11:35:31.777Z,92.30
2023-02-11T11:36:31.654Z,106.40
2023-02-11T11:37:31.597Z,104.80
2023-02-11T11:38:31.541Z,109.30
2023-02-11T11:39:31.468Z,105.40
2023-02-11T11:40:31.438Z,101.80
2023-02-11T11:41:52.620Z,107.30
2023-02-11T11:42:31.296Z,97.50
2023-02-11T11:43:31.249Z,100.20
2023-02-11T11:44:31.167Z,100.80
2023-02-11T11:45:31.072Z,102.90
2023-02-11T11:46:31.086Z,106.00
2023-02-11T11:47:31.009Z,105.10
2023-02-11T11:48:30.940Z,110.10
2023-02-11T11:49:30.847Z,98.30
2023-02-11T11:50:30.808Z,99.90
2023-02-11T11:51:30.753Z,102.60
2023-02-11T11:52:30.658Z,107.80
2023-02-11T11:53:30.618Z,100.50
2023-02-11T11:54:30.525Z,102.00
2023-02-11T11:55:30.496Z,99.10
2023-02-11T11:56:30.409Z,100.90
2023-02-11T11:57:30.365Z,103.90
2023-02-11T11:58:30.270Z,105.70
2023-02-11T12:00:40.391Z,99.50
2023-02-11T12:01:40.426Z,101.40
2023-02-11T12:02:40.350Z,106.10
2023-02-11T12:03:40.206Z,99.80
2023-02-11T12:04:40.162Z,101.50
2023-02-11T12:05:40.100Z,95.80
2023-02-11T12:06:39.990Z,109.90
2023-02-11T12:07:39.923Z,96.00
2023-02-11T12:08:39.937Z,103.60
2023-02-11T12:09:39.821Z,99.00
2023-02-11T12:10:40.348Z,102.70
2023-02-11T12:11:39.747Z,101.10
2023-02-11T12:12:39.664Z,109.50
2023-02-11T12:13:39.592Z,103.60
2023-02-11T12:14:39.487Z,107.40
2023-02-11T12:15:39.440Z,105.20
2023-02-11T12:16:39.484Z,104.00
2023-02-11T12:18:00.307Z,101.40
2023-02-11T12:18:39.370Z,105.90
2023-02-11T12:19:39.234Z,95.60
2023-02-11T12:20:39.159Z,106.90
2023-02-11T12:21:39.069Z,96.20
2023-02-11T12:22:38.976Z,100.20
2023-02-11T12:23:38.956Z,104.80
2023-02-11T12:24:38.902Z,100.40
2023-02-11T12:25:38.810Z,103.40
2023-02-11T12:26:38.781Z,107.40
2023-02-11T12:27:38.714Z,107.50
2023-02-11T12:28:38.741Z,107.10
2023-02-11T12:29:38.640Z,99.80
2023-02-11T12:30:38.542Z,105.40
2023-02-11T12:31:38.479Z,113.00
2023-02-11T12:32:38.905Z,109.60
2023-02-11T12:33:38.312Z,112.30
2023-02-11T12:34:38.277Z,112.10
2023-02-11T12:36:47.402Z,114.50
2023-02-11T12:37:48.315Z,111.30
2023-02-11T12:38:48.252Z,104.20
2023-02-11T12:39:48.143Z,116.30
2023-02-11T12:40:48.394Z,116.00
2023-02-11T12:41:48.055Z,115.00
2023-02-11T12:42:48.004Z,109.30
2023-02-11T12:43:47.949Z,114.70
2023-02-11T12:44:47.913Z,117.30
2023-02-11T12:45:47.809Z,114.80
2023-02-11T12:46:47.756Z,104.60
2023-02-11T12:47:47.687Z,104.40
2023-02-11T12:48:47.626Z,110.80
2023-02-11T12:49:47.530Z,115.90
2023-02-11T12:50:47.511Z,103.80